コペンハーゲン の空港の天気 - METARとTAF

コペンハーゲン国際空港 ( EKCH / CPH ) - デンマーク コペンハーゲン
飛行場実況気象(Metar)
観測時間06/18 01:50 CEST (06/17 23:50 UTC)
風向・風速南東 2m/s
視程10km以上
天気現象
なし
気温16℃
湿度88%
気圧1020hPa
METAREKCH 172350Z AUTO 14004KT 9999 NCD 16/14 Q1020 NOSIG
過去の天気等 Google飛行場航空写真 Wunderground天気予報

過去48時間のMETAR

飛行場予報(TAF)
発表時間: 6/18 01:12 CEST (6/17 23:12 UTC)
予報対象時間: 18日2時 CEST ~ 19日2時 CEST
風向・風速南南東 4m/s
視程10km以上
全天の4割程度の雲 雲底高度 1220m
TAF EKCH 172312Z 1800/1824 15008KT 9999 SCT040